Time;durP1;ratioP1;P1;durP2;ratioP2;P2;SDS_P1;SDS_P2;PMS_P1;PMS_P2;Temp;Humidity;BMP_temperature;BMP_pressure;BME280_temperature;BME280_humidity;BME280_pressure;Samples;Min_cycle;Max_cycle;Signal;HPM_P1;HPM_P2
2022/04/30 00:02:13;;;;;;;;;;;;;;;21.16;37.73;96054.81;10402980;28;1977;-44
2022/04/30 00:07:16;;;;;;;;;;;;;;;21.15;37.35;96059.31;10392744;28;1823;-47
2022/04/30 00:12:16;;;;;;;;;;;;;;;21.13;36.51;96060.63;10382492;28;1993;-48
2022/04/30 00:17:17;;;;;;;;;;;;;;;21.13;36.04;96063.25;10376125;28;1850;-45
2022/04/30 00:22:19;;;;;;;;;;;;;;;21.15;36.54;96055.88;10383573;28;1934;-48
2022/04/30 00:27:20;;;;;;;;;;;;;;;21.15;36.44;96047.97;10383241;28;1763;-42
2022/04/30 00:32:22;;;;;;;;;;;;;;;21.14;36.61;96039.28;10387892;28;1799;-47
2022/04/30 00:37:23;;;;;;;;;;;;;;;21.15;36.89;96050.59;10379800;28;2011;-43
2022/04/30 00:42:23;;;;;;;;;;;;;;;21.15;36.56;96050.59;10394856;28;1981;-44
2022/04/30 00:47:26;;;;;;;;;;;;;;;21.16;36.63;96046.91;10379521;28;1879;-43
2022/04/30 00:52:26;;;;;;;;;;;;;;;21.14;36.67;96041.91;10373306;28;1867;-44
2022/04/30 00:57:27;;;;;;;;;;;;;;;21.14;36.25;96033.22;10377941;28;1903;-45
2022/04/30 01:02:28;;;;;;;;;;;;;;;21.12;36.91;96037.97;10372773;28;1919;-46
2022/04/30 01:07:29;;;;;;;;;;;;;;;21.11;37.05;96036.38;10375336;28;1860;-43
2022/04/30 01:12:29;;;;;;;;;;;;;;;21.11;36.86;96031.91;10373986;28;1852;-44
2022/04/30 01:17:30;;;;;;;;;;;;;;;21.10;36.97;96026.91;10356083;28;1846;-42
2022/04/30 01:22:33;;;;;;;;;;;;;;;21.11;37.40;96015.28;10367608;28;1926;-43
2022/04/30 01:27:33;;;;;;;;;;;;;;;21.08;37.25;96017.41;10356596;28;1844;-45
2022/04/30 01:38:07;;;;;;;;;;;;;;;21.10;37.16;96013.72;10348482;28;1997;-45
2022/04/30 01:43:08;;;;;;;;;;;;;;;21.11;37.29;96004.75;10391657;28;1922;-45
2022/04/30 01:48:12;;;;;;;;;;;;;;;21.12;37.12;95999.22;10372549;28;2041;-45
2022/04/30 01:53:12;;;;;;;;;;;;;;;21.13;36.95;95992.88;10379196;28;1886;-47
2022/04/30 01:58:14;;;;;;;;;;;;;;;21.13;36.62;96000.00;10388845;28;1906;-48
2022/04/30 02:03:16;;;;;;;;;;;;;;;21.16;36.37;95994.19;10389982;28;1906;-42
2022/04/30 02:08:20;;;;;;;;;;;;;;;21.16;35.89;95983.66;10394767;28;1873;-43
2022/04/30 02:13:23;;;;;;;;;;;;;;;21.15;34.55;95982.06;10376087;28;1855;-44
2022/04/30 02:18:24;;;;;;;;;;;;;;;21.19;35.66;95967.28;10393950;28;1825;-43
2022/04/30 02:23:24;;;;;;;;;;;;;;;21.19;34.45;95964.63;10384477;28;1914;-44
2022/04/30 02:28:25;;;;;;;;;;;;;;;21.17;34.43;95951.72;10374558;28;1791;-44
2022/04/30 02:33:26;;;;;;;;;;;;;;;21.20;34.49;95953.84;10377648;28;1923;-45
2022/04/30 02:38:26;;;;;;;;;;;;;;;21.21;33.94;95950.13;10374494;28;2140;-45
2022/04/30 02:43:28;;;;;;;;;;;;;;;21.20;34.22;95937.22;10383103;28;1984;-45
2022/04/30 02:48:29;;;;;;;;;;;;;;;21.23;33.62;95934.03;10377784;28;1844;-42
2022/04/30 02:53:29;;;;;;;;;;;;;;;21.25;34.90;95931.91;10400475;28;2023;-44
2022/04/30 03:03:48;;;;;;;;;;;;;;;21.27;34.12;95927.94;10380978;28;1930;-45
2022/04/30 03:08:49;;;;;;;;;;;;;;;21.29;33.92;95914.50;10377453;28;1875;-45
2022/04/30 03:13:49;;;;;;;;;;;;;;;21.28;33.29;95905.81;10381635;28;2046;-42
2022/04/30 03:24:09;;;;;;;;;;;;;;;21.31;33.35;95902.59;10367345;28;2030;-43
2022/04/30 03:29:10;;;;;;;;;;;;;;;21.31;32.82;95907.88;10382144;28;1863;-43
2022/04/30 03:34:10;;;;;;;;;;;;;;;21.33;32.75;95902.34;10395453;28;1927;-46
2022/04/30 03:39:11;;;;;;;;;;;;;;;21.35;33.92;95903.63;10402684;28;2056;-45
2022/04/30 03:44:11;;;;;;;;;;;;;;;21.35;33.33;95902.88;10397980;28;1938;-46
2022/04/30 03:49:12;;;;;;;;;;;;;;;21.36;33.54;95909.69;10390635;28;1860;-44
2022/04/30 03:54:12;;;;;;;;;;;;;;;21.37;33.08;95912.06;10404778;28;1827;-46
2022/04/30 03:59:12;;;;;;;;;;;;;;;21.39;33.36;95923.13;10401952;28;1947;-43
2022/04/30 04:04:13;;;;;;;;;;;;;;;21.40;32.73;95926.56;10403059;28;1918;-43
2022/04/30 04:09:14;;;;;;;;;;;;;;;21.43;33.62;95926.00;10396871;28;1993;-45
2022/04/30 04:19:33;;;;;;;;;;;;;;;21.44;34.88;95925.72;10382128;28;2007;-46
2022/04/30 04:29:52;;;;;;;;;;;;;;;21.48;35.84;95939.94;10389950;28;2003;-43
2022/04/30 04:34:53;;;;;;;;;;;;;;;21.45;34.79;95934.44;10383741;28;1839;-45
2022/04/30 04:39:55;;;;;;;;;;;;;;;21.45;35.43;95935.22;10382601;28;1939;-42
2022/04/30 04:44:55;;;;;;;;;;;;;;;21.47;35.72;95948.13;10379218;28;1965;-44
2022/04/30 04:49:56;;;;;;;;;;;;;;;21.47;35.86;95937.59;10379828;28;1910;-45
2022/04/30 04:54:59;;;;;;;;;;;;;;;21.46;35.49;95938.63;10381179;28;1958;-43
2022/04/30 04:59:59;;;;;;;;;;;;;;;21.46;36.14;95947.34;10377601;28;1939;-45
2022/04/30 05:05:00;;;;;;;;;;;;;;;21.45;36.27;95947.63;10374549;28;1918;-45
2022/04/30 05:10:03;;;;;;;;;;;;;;;21.45;36.17;95953.66;10398882;28;1878;-43
2022/04/30 05:15:04;;;;;;;;;;;;;;;21.46;36.34;95957.09;10381783;28;1861;-42
2022/04/30 05:20:05;;;;;;;;;;;;;;;21.43;36.33;95960.28;10397518;28;1899;-44
2022/04/30 05:25:05;;;;;;;;;;;;;;;21.41;36.18;95952.63;10391613;28;1914;-43
2022/04/30 05:30:06;;;;;;;;;;;;;;;21.39;36.31;95954.00;10377994;28;1897;-44
2022/04/30 05:35:07;;;;;;;;;;;;;;;21.41;36.37;95970.34;10391986;28;1835;-45
2022/04/30 05:40:07;;;;;;;;;;;;;;;21.40;36.37;95974.03;10393019;28;1792;-43
2022/04/30 05:45:08;;;;;;;;;;;;;;;21.40;36.25;95974.03;10391864;28;1915;-43
2022/04/30 05:50:09;;;;;;;;;;;;;;;21.38;36.59;95986.69;10384692;28;1740;-42
2022/04/30 05:55:09;;;;;;;;;;;;;;;21.39;36.33;95980.38;10388315;28;1818;-43
2022/04/30 06:00:10;;;;;;;;;;;;;;;21.40;36.57;95993.28;10387958;28;1823;-42
2022/04/30 06:05:10;;;;;;;;;;;;;;;21.40;36.06;95995.13;10403995;28;1910;-42
2022/04/30 06:10:11;;;;;;;;;;;;;;;21.41;36.08;95991.44;10401057;28;1869;-43
2022/04/30 06:15:11;;;;;;;;;;;;;;;21.40;36.39;95985.34;10405041;28;2332;-44
2022/04/30 06:20:11;;;;;;;;;;;;;;;21.42;36.42;95982.44;10400673;28;1743;-47
2022/04/30 06:25:12;;;;;;;;;;;;;;;21.39;36.17;95983.00;10410273;28;1967;-45
2022/04/30 06:30:12;;;;;;;;;;;;;;;21.37;36.55;95985.88;10402009;28;1947;-48
2022/04/30 06:35:13;;;;;;;;;;;;;;;21.46;36.44;95983.47;10396561;28;1815;-43
2022/04/30 06:40:13;;;;;;;;;;;;;;;21.43;36.36;95973.47;10388782;28;1783;-48
2022/04/30 06:45:16;;;;;;;;;;;;;;;21.42;36.09;95988.50;10415910;28;1910;-48
2022/04/30 06:50:17;;;;;;;;;;;;;;;21.43;36.29;95984.03;10416641;28;1858;-46
2022/04/30 07:01:28;;;;;;;;;;;;;;;21.11;34.18;95978.38;10402857;28;1862;-45
2022/04/30 07:06:03;;;;;;;;;;;;;;;20.73;33.99;95977.22;10399376;28;1918;-45
2022/04/30 07:11:04;;;;;;;;;;;;;;;20.48;33.90;95967.53;10393734;28;1796;-45
2022/04/30 07:16:04;;;;;;;;;;;;;;;20.29;33.96;95969.16;10399552;28;1953;-43
2022/04/30 07:21:05;;;;;;;;;;;;;;;20.40;34.38;95980.47;10394810;28;1905;-44
2022/04/30 07:26:05;;;;;;;;;;;;;;;20.65;34.62;95977.78;10401390;28;1987;-47
2022/04/30 07:31:05;;;;;;;;;;;;;;;20.90;34.58;95969.75;10393758;28;1853;-47
2022/04/30 07:36:06;;;;;;;;;;;;;;;21.07;34.79;95967.59;10394465;28;1929;-43
2022/04/30 07:41:06;;;;;;;;;;;;;;;21.22;34.77;95966.75;10393346;28;1802;-46
2022/04/30 07:46:07;;;;;;;;;;;;;;;21.26;34.49;95975.69;10409112;28;1910;-48
2022/04/30 07:51:53;;;;;;;;;;;;;;;21.34;34.46;95986.44;10396864;28;1799;-46
2022/04/30 07:56:28;;;;;;;;;;;;;;;21.33;34.63;95984.84;10391526;28;1851;-49
2022/04/30 08:01:28;;;;;;;;;;;;;;;21.38;34.62;95991.97;10397258;28;1819;-45
2022/04/30 08:06:29;;;;;;;;;;;;;;;21.42;34.67;95993.00;10394944;28;1906;-42
2022/04/30 08:11:29;;;;;;;;;;;;;;;21.43;34.60;95990.06;10389579;28;1811;-45
2022/04/30 08:16:31;;;;;;;;;;;;;;;21.46;34.48;95999.28;10413153;28;1826;-44
2022/04/30 08:21:31;;;;;;;;;;;;;;;21.48;34.63;96002.44;10412851;28;1783;-44
2022/04/30 08:26:32;;;;;;;;;;;;;;;21.52;34.77;95995.56;10408880;28;1971;-44
2022/04/30 08:31:32;;;;;;;;;;;;;;;21.56;34.83;96001.88;10412088;28;1821;-43
2022/04/30 08:36:33;;;;;;;;;;;;;;;21.54;35.01;96006.63;10388746;28;1787;-45
2022/04/30 08:41:33;;;;;;;;;;;;;;;21.53;34.91;95997.94;10408713;28;1812;-46
2022/04/30 08:46:33;;;;;;;;;;;;;;;21.51;35.01;96015.09;10383475;28;1967;-43
2022/04/30 08:51:34;;;;;;;;;;;;;;;21.52;35.15;96020.09;10398553;28;1794;-43
2022/04/30 08:56:35;;;;;;;;;;;;;;;21.52;35.18;96021.94;10414098;28;1751;-47
2022/04/30 09:01:49;;;;;;;;;;;;;;;21.51;35.43;96029.09;10391532;28;1848;-44
2022/04/30 09:06:51;;;;;;;;;;;;;;;21.49;35.59;96025.94;10393186;28;1906;-43
2022/04/30 09:11:53;;;;;;;;;;;;;;;21.50;35.42;96031.97;10401389;28;1849;-43
2022/04/30 09:17:00;;;;;;;;;;;;;;;21.47;35.49;96024.63;10411686;28;1790;-44
2022/04/30 09:22:01;;;;;;;;;;;;;;;21.46;35.59;96010.63;10416415;28;1830;-45
2022/04/30 09:27:04;;;;;;;;;;;;;;;21.43;35.66;96007.78;10406042;28;1993;-46
2022/04/30 09:32:05;;;;;;;;;;;;;;;21.42;35.55;96019.38;10409453;28;1958;-43
2022/04/30 09:42:25;;;;;;;;;;;;;;;21.41;35.46;96018.56;10392692;28;1914;-46
2022/04/30 09:47:26;;;;;;;;;;;;;;;21.43;35.75;96021.72;10405539;28;1863;-44
2022/04/30 09:57:45;;;;;;;;;;;;;;;21.47;39.06;96029.91;10388589;28;1779;-44
2022/04/30 10:02:46;;;;;;;;;;;;;;;21.41;38.57;96026.47;10397871;28;1909;-43
2022/04/30 10:07:46;;;;;;;;;;;;;;;21.39;38.01;96025.97;10382938;28;1864;-44
2022/04/30 10:12:55;;;;;;;;;;;;;;;21.38;37.84;96021.75;10383354;28;1830;-43
2022/04/30 10:17:57;;;;;;;;;;;;;;;21.38;38.04;96031.53;10380596;28;1760;-47
2022/04/30 10:22:58;;;;;;;;;;;;;;;21.34;38.13;96022.56;10396672;28;1914;-46
2022/04/30 10:27:58;;;;;;;;;;;;;;;21.36;38.05;96036.28;10401292;28;1850;-43
2022/04/30 10:33:02;;;;;;;;;;;;;;;21.35;37.99;96029.44;10381867;28;1823;-45
2022/04/30 10:38:09;;;;;;;;;;;;;;;21.35;37.99;96032.06;10407066;28;1960;-44
2022/04/30 10:43:25;;;;;;;;;;;;;;;21.30;38.05;96040.00;10383657;28;1993;-43
2022/04/30 10:48:26;;;;;;;;;;;;;;;21.30;37.81;96035.53;10387817;28;1796;-46
2022/04/30 10:53:27;;;;;;;;;;;;;;;21.30;37.67;96042.63;10385818;28;1818;-43
2022/04/30 10:58:28;;;;;;;;;;;;;;;21.30;37.72;96042.63;10384446;28;1798;-42
2022/04/30 11:03:28;;;;;;;;;;;;;;;21.26;37.97;96033.69;10398919;28;2005;-46
2022/04/30 11:08:29;;;;;;;;;;;;;;;21.24;37.70;96033.97;10406119;28;1783;-44
2022/04/30 11:13:29;;;;;;;;;;;;;;;21.24;37.72;96026.06;10393734;28;2052;-45
2022/04/30 11:18:30;;;;;;;;;;;;;;;21.24;37.63;96031.34;10381325;28;1807;-42
2022/04/30 11:23:30;;;;;;;;;;;;;;;21.25;37.70;96024.97;10401386;28;1914;-44
2022/04/30 11:28:31;;;;;;;;;;;;;;;21.23;37.56;96027.09;10410887;28;1819;-45
2022/04/30 11:33:36;;;;;;;;;;;;;;;21.22;37.78;96025.53;10407243;28;1866;-43
2022/04/30 11:38:37;;;;;;;;;;;;;;;21.24;37.80;96012.88;10394887;28;1826;-42
2022/04/30 11:43:39;;;;;;;;;;;;;;;21.14;36.42;96017.41;10394307;28;1989;-42
2022/04/30 11:48:39;;;;;;;;;;;;;;;21.11;35.85;96023.19;10410858;28;1975;-42
2022/04/30 11:53:40;;;;;;;;;;;;;;;21.08;35.12;96025.31;10388570;28;2018;-43
2022/04/30 11:58:41;;;;;;;;;;;;;;;21.20;34.98;96018.97;10409691;28;1853;-42
2022/04/30 12:03:41;;;;;;;;;;;;;;;21.22;36.07;96028.19;10401052;28;1902;-45
2022/04/30 12:08:42;;;;;;;;;;;;;;;21.32;36.88;96020.22;10404294;28;1972;-44
2022/04/30 12:13:42;;;;;;;;;;;;;;;21.43;38.25;96026.22;10411346;28;1847;-45
2022/04/30 12:29:22;;;;;;;;;;;;;;;21.57;40.00;96008.72;10413408;28;1843;-44
2022/04/30 12:34:27;;;;;;;;;;;;;;;21.58;39.90;96005.03;10403725;28;1850;-42
2022/04/30 12:39:27;;;;;;;;;;;;;;;21.60;39.55;96016.09;10386790;28;1756;-48
2022/04/30 12:44:27;;;;;;;;;;;;;;;21.65;39.52;96008.16;10408208;28;2064;-43
2022/04/30 12:49:28;;;;;;;;;;;;;;;21.61;39.94;96001.84;10385641;28;1872;-41
2022/04/30 12:54:28;;;;;;;;;;;;;;;21.61;39.80;96005.28;10388099;28;1869;-42
2022/04/30 12:59:28;;;;;;;;;;;;;;;21.62;39.96;95993.66;10396775;28;1866;-42
2022/04/30 13:04:29;;;;;;;;;;;;;;;21.63;39.62;95995.25;10398542;28;1977;-42
2022/04/30 13:14:50;;;;;;;;;;;;;;;21.59;39.17;95990.78;10394956;28;1810;-44
2022/04/30 13:19:53;;;;;;;;;;;;;;;21.57;37.80;95990.28;10401468;28;1839;-45
2022/04/30 13:24:53;;;;;;;;;;;;;;;21.51;37.70;95991.38;10387106;28;1979;-41
2022/04/30 13:29:54;;;;;;;;;;;;;;;21.49;36.50;95989.00;10375453;28;1937;-46
2022/04/30 13:34:55;;;;;;;;;;;;;;;21.45;37.63;95984.56;10383179;28;1807;-42
2022/04/30 13:39:56;;;;;;;;;;;;;;;21.53;39.22;95987.41;10411058;28;1872;-49
2022/04/30 13:44:56;;;;;;;;;;;;;;;21.53;38.73;95983.97;10387699;28;1975;-44
2022/04/30 13:49:56;;;;;;;;;;;;;;;21.49;38.84;95981.09;10381692;28;1821;-45
2022/04/30 13:54:56;;;;;;;;;;;;;;;21.46;37.86;95978.19;10395952;28;1915;-43
2022/04/30 13:59:57;;;;;;;;;;;;;;;20.95;36.47;95973.19;10390653;28;1850;-45
2022/04/30 14:04:57;;;;;;;;;;;;;;;20.56;36.05;95963.56;10377443;28;1975;-48
2022/04/30 14:09:58;;;;;;;;;;;;;;;20.48;36.08;95970.19;10371260;28;1799;-47
2022/04/30 14:14:58;;;;;;;;;;;;;;;20.57;36.08;95971.19;10384527;28;1692;-44
2022/04/30 14:19:59;;;;;;;;;;;;;;;20.45;35.72;95968.06;10401191;28;1894;-42
2022/04/30 14:24:59;;;;;;;;;;;;;;;20.42;35.88;95971.25;10404184;28;1910;-45
2022/04/30 14:30:00;;;;;;;;;;;;;;;20.40;35.49;95972.56;10404542;28;1820;-42
2022/04/30 14:35:01;;;;;;;;;;;;;;;20.37;35.47;95965.97;10409504;28;1906;-47
2022/04/30 14:40:05;;;;;;;;;;;;;;;20.78;36.53;95967.44;10396604;28;1870;-43
2022/04/30 14:45:05;;;;;;;;;;;;;;;21.00;36.54;95970.50;10392063;28;1985;-44
2022/04/30 14:50:07;;;;;;;;;;;;;;;21.12;36.52;95966.81;10388804;28;1902;-46
2022/04/30 14:55:07;;;;;;;;;;;;;;;21.23;36.13;95968.31;10412127;28;1812;-42
2022/04/30 15:00:08;;;;;;;;;;;;;;;21.22;36.33;95964.09;10396754;28;1800;-48
2022/04/30 15:05:08;;;;;;;;;;;;;;;21.22;35.50;95957.00;10394827;28;1977;-43
2022/04/30 15:10:09;;;;;;;;;;;;;;;21.27;35.62;95964.09;10392464;28;1889;-44
2022/04/30 15:15:09;;;;;;;;;;;;;;;21.31;35.63;95955.34;10393026;28;1755;-44
2022/04/30 15:20:12;;;;;;;;;;;;;;;21.36;35.64;95963.22;10418065;28;1757;-45
2022/04/30 15:25:12;;;;;;;;;;;;;;;21.46;36.21;95957.09;10403308;28;1918;-42
2022/04/30 15:30:13;;;;;;;;;;;;;;;21.55;36.13;95961.53;10414544;28;1905;-48
2022/04/30 15:35:13;;;;;;;;;;;;;;;21.59;36.45;95959.13;10396712;28;1792;-44
2022/04/30 15:40:14;;;;;;;;;;;;;;;21.60;36.57;95952.78;10409565;28;1743;-44
2022/04/30 15:45:15;;;;;;;;;;;;;;;21.62;36.61;95961.19;10393454;28;1907;-49
2022/04/30 15:55:38;;;;;;;;;;;;;;;21.59;36.93;95952.00;10363275;28;1885;-44
2022/04/30 16:00:39;;;;;;;;;;;;;;;21.58;37.03;95952.25;10383132;28;1828;-44
2022/04/30 16:05:40;;;;;;;;;;;;;;;21.59;36.84;95948.56;10384648;28;1933;-47
2022/04/30 16:10:40;;;;;;;;;;;;;;;21.60;37.80;95950.13;10402081;28;1839;-43
2022/04/30 16:15:41;;;;;;;;;;;;;;;21.58;37.67;95944.34;10408926;28;1889;-45
2022/04/30 16:20:42;;;;;;;;;;;;;;;21.54;37.44;95941.47;10393654;28;1868;-44
2022/04/30 16:25:42;;;;;;;;;;;;;;;21.52;37.15;95940.97;10408882;28;1918;-45
2022/04/30 16:30:42;;;;;;;;;;;;;;;21.52;36.76;95940.19;10396076;28;1903;-44
2022/04/30 16:35:43;;;;;;;;;;;;;;;21.49;37.38;95932.81;10394768;28;1835;-49
2022/04/30 16:40:44;;;;;;;;;;;;;;;21.50;37.03;95929.91;10408035;28;1970;-42
2022/04/30 16:45:46;;;;;;;;;;;;;;;21.48;36.99;95920.69;10374651;28;1969;-47
2022/04/30 17:01:24;;;;;;;;;;;;;;;21.43;37.51;95916.22;10393522;28;1791;-45
2022/04/30 17:06:29;;;;;;;;;;;;;;;21.46;37.66;95914.91;10388386;28;1933;-47
2022/04/30 17:11:29;;;;;;;;;;;;;;;21.45;37.90;95918.63;10373696;28;1693;-45
2022/04/30 17:16:30;;;;;;;;;;;;;;;21.45;38.02;95921.25;10371422;28;2038;-44
2022/04/30 17:21:31;;;;;;;;;;;;;;;21.47;37.75;95924.41;10383853;28;1873;-50
2022/04/30 17:26:31;;;;;;;;;;;;;;;21.46;38.00;95931.53;10397574;28;1918;-43
2022/04/30 17:42:09;;;;;;;;;;;;;;;21.42;38.42;95938.41;10382340;28;1812;-44
2022/04/30 17:47:10;;;;;;;;;;;;;;;21.42;38.36;95945.53;10403947;28;1914;-49
2022/04/30 17:52:13;;;;;;;;;;;;;;;21.42;38.32;95937.63;10405519;28;1669;-49
2022/04/30 17:57:15;;;;;;;;;;;;;;;21.40;38.43;95947.66;10387153;28;1819;-43
2022/04/30 18:02:16;;;;;;;;;;;;;;;21.43;38.32;95944.47;10365480;28;2343;-44
2022/04/30 18:07:17;;;;;;;;;;;;;;;21.43;38.75;95942.59;10390384;28;1906;-48
2022/04/30 18:12:17;;;;;;;;;;;;;;;21.44;38.51;95948.69;10395551;28;1841;-45
2022/04/30 18:17:18;;;;;;;;;;;;;;;21.45;39.40;95948.41;10396993;28;1761;-45
2022/04/30 18:22:18;;;;;;;;;;;;;;;21.49;40.11;95951.28;10393703;28;1883;-48
2022/04/30 18:27:19;;;;;;;;;;;;;;;21.52;41.42;95956.00;10405454;28;1902;-46
2022/04/30 18:32:20;;;;;;;;;;;;;;;21.54;41.68;95972.34;10376655;28;1916;-47
2022/04/30 18:37:20;;;;;;;;;;;;;;;21.55;42.22;95980.00;10410438;28;1866;-44
2022/04/30 18:42:20;;;;;;;;;;;;;;;21.56;42.06;95981.56;10412952;28;1876;-50
2022/04/30 18:47:21;;;;;;;;;;;;;;;21.60;42.52;95984.44;10411763;28;1971;-42
2022/04/30 18:52:21;;;;;;;;;;;;;;;21.59;42.13;95980.22;10405667;28;1815;-48
2022/04/30 19:02:56;;;;;;;;;;;;;;;21.63;43.28;95995.25;10356405;28;1927;-43
2022/04/30 19:07:56;;;;;;;;;;;;;;;21.61;43.02;95997.38;10405767;28;1802;-45
2022/04/30 19:12:57;;;;;;;;;;;;;;;21.61;42.45;96001.84;10399875;28;1804;-45
2022/04/30 19:17:57;;;;;;;;;;;;;;;21.64;42.81;96011.84;10398122;28;1768;-45
2022/04/30 19:22:58;;;;;;;;;;;;;;;21.63;42.26;96011.06;10397547;28;1968;-43
2022/04/30 19:27:59;;;;;;;;;;;;;;;21.65;42.38;96018.72;10395710;28;1791;-45
2022/04/30 19:33:00;;;;;;;;;;;;;;;21.66;42.23;96015.78;10397446;28;1892;-46
2022/04/30 19:38:00;;;;;;;;;;;;;;;21.65;41.33;96013.44;10415698;28;1877;-45
2022/04/30 19:43:02;;;;;;;;;;;;;;;21.61;40.96;96015.84;10408742;28;1910;-46
2022/04/30 19:48:02;;;;;;;;;;;;;;;21.60;40.94;96019.53;10401070;28;1898;-44
2022/04/30 19:53:05;;;;;;;;;;;;;;;21.59;40.20;96019.81;10402929;28;1929;-47
2022/04/30 19:58:06;;;;;;;;;;;;;;;21.60;39.89;96014.25;10384943;28;1820;-44
2022/04/30 20:03:08;;;;;;;;;;;;;;;21.59;40.11;96009.25;10383407;28;1989;-48
2022/04/30 20:08:09;;;;;;;;;;;;;;;21.59;39.74;96009.25;10387753;28;1877;-43
2022/04/30 20:18:29;;;;;;;;;;;;;;;21.60;40.03;96021.38;10385476;28;1922;-49
2022/04/30 20:23:30;;;;;;;;;;;;;;;21.58;40.19;96023.50;10402193;28;1967;-45
2022/04/30 20:28:31;;;;;;;;;;;;;;;21.39;38.41;96025.97;10391629;28;1733;-45
2022/04/30 20:38:51;;;;;;;;;;;;;;;20.77;38.64;96023.03;10402527;28;1732;-46
2022/04/30 20:43:51;;;;;;;;;;;;;;;20.55;38.48;96023.34;10400763;28;1906;-45
2022/04/30 20:48:52;;;;;;;;;;;;;;;20.36;38.67;96027.56;10396275;28;1728;-47
2022/04/30 20:53:56;;;;;;;;;;;;;;;20.23;39.01;96028.94;10386553;28;1821;-43
2022/04/30 20:58:57;;;;;;;;;;;;;;;20.46;39.05;96029.41;10400464;28;1829;-42
2022/04/30 21:03:57;;;;;;;;;;;;;;;20.66;38.34;96026.75;10403113;28;1911;-45
2022/04/30 21:08:59;;;;;;;;;;;;;;;20.78;38.21;96028.03;10375163;28;1814;-48
2022/04/30 21:14:00;;;;;;;;;;;;;;;20.88;37.86;96025.38;10380516;28;1867;-43
2022/04/30 21:19:00;;;;;;;;;;;;;;;20.93;37.29;96017.47;10398599;28;1862;-43
2022/04/30 21:24:00;;;;;;;;;;;;;;;20.99;37.12;96015.59;10390264;28;1910;-46
2022/04/30 21:29:02;;;;;;;;;;;;;;;21.02;36.73;96015.84;10401033;28;1865;-44
2022/04/30 21:34:02;;;;;;;;;;;;;;;21.07;36.83;96015.06;10402300;28;1863;-43
2022/04/30 21:39:03;;;;;;;;;;;;;;;21.11;36.70;96012.66;10389443;28;1846;-46
2022/04/30 21:44:03;;;;;;;;;;;;;;;21.12;36.09;96011.59;10402770;28;1981;-47
2022/04/30 21:49:04;;;;;;;;;;;;;;;21.15;36.07;96003.16;10407289;28;1905;-44
2022/04/30 21:54:05;;;;;;;;;;;;;;;21.17;35.99;96003.66;10395331;28;1828;-42
2022/04/30 22:04:24;;;;;;;;;;;;;;;21.26;36.38;96012.59;10384557;28;1910;-43
2022/04/30 22:09:25;;;;;;;;;;;;;;;21.31;37.04;96007.31;10382959;28;1886;-45
2022/04/30 22:14:27;;;;;;;;;;;;;;;21.35;37.54;96008.34;10399006;28;1819;-47
2022/04/30 22:19:29;;;;;;;;;;;;;;;21.36;37.59;96005.44;10411299;28;1836;-44
2022/04/30 22:24:31;;;;;;;;;;;;;;;21.35;37.69;96013.63;10395560;28;1969;-45
2022/04/30 22:29:31;;;;;;;;;;;;;;;21.36;38.18;96009.91;10403509;28;1882;-47
2022/04/30 22:34:32;;;;;;;;;;;;;;;21.35;38.28;96009.09;10394509;28;1828;-43
2022/04/30 22:44:52;;;;;;;;;;;;;;;21.36;38.73;96015.97;10392361;28;2029;-43
2022/04/30 22:49:53;;;;;;;;;;;;;;;21.39;39.38;96018.06;10406450;28;1831;-42
2022/04/30 22:54:53;;;;;;;;;;;;;;;21.38;39.46;96008.56;10402354;28;1827;-46
2022/04/30 22:59:54;;;;;;;;;;;;;;;21.39;39.66;96012.00;10402404;28;1775;-46
2022/04/30 23:04:55;;;;;;;;;;;;;;;21.37;39.15;96008.84;10385545;28;1894;-43
2022/04/30 23:09:55;;;;;;;;;;;;;;;21.37;38.97;96008.84;10395444;28;1809;-42
2022/04/30 23:14:56;;;;;;;;;;;;;;;21.41;39.43;96012.53;10390585;28;1812;-43
2022/04/30 23:19:57;;;;;;;;;;;;;;;21.36;38.71;96009.91;10396533;28;1835;-43
2022/04/30 23:24:58;;;;;;;;;;;;;;;21.36;39.25;96009.91;10381448;28;1999;-45
2022/04/30 23:30:02;;;;;;;;;;;;;;;21.37;39.11;96011.50;10383649;28;2105;-43
2022/04/30 23:35:02;;;;;;;;;;;;;;;21.35;38.64;96003.06;10398553;28;1795;-42
2022/04/30 23:40:04;;;;;;;;;;;;;;;21.36;38.05;96005.44;10398549;28;1827;-48
2022/04/30 23:45:04;;;;;;;;;;;;;;;21.40;38.55;96000.38;10374194;28;2025;-46
2022/04/30 23:50:06;;;;;;;;;;;;;;;21.38;38.37;95997.25;10376093;28;1757;-44
2022/04/30 23:55:06;;;;;;;;;;;;;;;21.38;38.43;95991.97;10391398;28;1861;-43
